Time;durP1;ratioP1;P1;durP2;ratioP2;P2;SDS_P1;SDS_P2;PMS_P1;PMS_P2;Temp;Humidity;BMP_temperature;BMP_pressure;BME280_temperature;BME280_humidity;BME280_pressure;Samples;Min_cycle;Max_cycle;Signal;HPM_P1;HPM_P2
2021/10/08 00:02:17;;;;;;;9.38;5.15;;;;;16.70;102912.00;;;;5041859;28;20227;-79
2021/10/08 00:04:44;;;;;;;7.15;4.90;;;;;16.60;102910.00;;;;5032262;28;20191;-79
2021/10/08 00:07:11;;;;;;;6.43;4.78;;;;;16.60;102911.00;;;;5038780;28;20199;-80
2021/10/08 00:09:39;;;;;;;7.82;5.45;;;;;16.60;102912.00;;;;5048583;28;20682;-79
2021/10/08 00:12:07;;;;;;;7.03;4.72;;;;;16.60;102915.00;;;;5030252;28;20188;-80
2021/10/08 00:14:35;;;;;;;8.90;5.30;;;;;16.60;102919.00;;;;5034290;28;20210;-79
2021/10/08 00:17:02;;;;;;;11.38;5.40;;;;;16.60;102916.00;;;;5034469;28;20196;-80
2021/10/08 00:19:29;;;;;;;9.50;4.22;;;;;16.60;102916.00;;;;5029468;28;20686;-79
2021/10/08 00:21:57;;;;;;;17.60;5.90;;;;;16.50;102916.00;;;;5028870;28;20220;-79
2021/10/08 00:24:24;;;;;;;6.32;5.05;;;;;16.50;102914.00;;;;5031672;28;20192;-79
2021/10/08 00:26:51;;;;;;;5.97;4.70;;;;;16.50;102918.00;;;;5031798;28;20689;-80
2021/10/08 00:29:20;;;;;;;9.25;5.05;;;;;16.50;102919.00;;;;5045903;28;20620;-79
2021/10/08 00:31:47;;;;;;;9.85;5.35;;;;;16.50;102918.00;;;;5028840;28;20596;-80
2021/10/08 00:34:14;;;;;;;9.43;5.53;;;;;16.50;102912.00;;;;5031070;28;20208;-79
2021/10/08 00:36:41;;;;;;;9.30;4.88;;;;;16.50;102912.00;;;;5028562;28;20188;-80
2021/10/08 00:39:09;;;;;;;9.00;5.13;;;;;16.40;102905.00;;;;5035647;28;20232;-79
2021/10/08 00:41:36;;;;;;;9.13;4.97;;;;;16.40;102909.00;;;;5029088;28;20223;-80
2021/10/08 00:44:03;;;;;;;9.40;5.07;;;;;16.40;102911.00;;;;5032294;28;20195;-80
2021/10/08 00:46:32;;;;;;;7.60;5.25;;;;;16.40;102920.00;;;;5044076;28;20210;-80
2021/10/08 00:49:00;;;;;;;6.78;5.07;;;;;16.40;102916.00;;;;5029400;28;20204;-79
2021/10/08 00:51:28;;;;;;;9.48;5.30;;;;;16.40;102920.00;;;;5028627;28;20200;-79
2021/10/08 00:53:55;;;;;;;6.55;5.32;;;;;16.40;102922.00;;;;5028609;28;20197;-80
2021/10/08 00:56:23;;;;;;;6.30;4.90;;;;;16.30;102924.00;;;;5027980;28;20196;-79
2021/10/08 00:58:52;;;;;;;8.93;5.95;;;;;16.30;102920.00;;;;5034729;28;20191;-80
2021/10/08 01:01:19;;;;;;;9.07;5.63;;;;;16.30;102924.00;;;;5034678;28;20228;-79
2021/10/08 01:03:48;;;;;;;12.00;5.43;;;;;16.30;102921.00;;;;5028859;28;20573;-80
2021/10/08 01:06:15;;;;;;;7.93;4.97;;;;;16.30;102916.00;;;;5030339;28;20211;-79
2021/10/08 01:08:43;;;;;;;8.85;4.78;;;;;16.30;102919.00;;;;5028170;28;20196;-79
2021/10/08 01:11:10;;;;;;;6.05;4.78;;;;;16.30;102916.00;;;;5033090;28;20203;-79
2021/10/08 01:13:37;;;;;;;6.93;5.30;;;;;16.30;102919.00;;;;5035365;28;20681;-79
2021/10/08 01:16:05;;;;;;;7.82;5.53;;;;;16.30;102925.00;;;;5031074;28;20768;-80
2021/10/08 01:18:32;;;;;;;9.35;4.97;;;;;16.30;102917.00;;;;5028400;28;20323;-79
2021/10/08 01:21:01;;;;;;;7.38;4.88;;;;;16.30;102915.00;;;;5027362;28;20196;-79
2021/10/08 01:23:28;;;;;;;5.47;4.53;;;;;16.20;102925.00;;;;5028078;28;20196;-79
2021/10/08 01:25:55;;;;;;;5.90;4.50;;;;;16.20;102916.00;;;;5029078;28;20207;-79
2021/10/08 01:28:23;;;;;;;5.63;4.68;;;;;16.20;102924.00;;;;5035053;28;20202;-79
2021/10/08 01:30:50;;;;;;;6.68;4.10;;;;;16.20;102927.00;;;;5041837;28;20220;-79
2021/10/08 01:33:18;;;;;;;9.23;5.32;;;;;16.20;102917.00;;;;5028766;28;20211;-79
2021/10/08 01:35:45;;;;;;;5.45;4.60;;;;;16.20;102917.00;;;;5030304;28;20204;-79
2021/10/08 01:38:14;;;;;;;6.75;5.07;;;;;16.10;102919.00;;;;5043585;28;20302;-79
2021/10/08 01:40:41;;;;;;;7.72;4.55;;;;;16.20;102917.00;;;;5039958;28;20207;-80
2021/10/08 01:43:08;;;;;;;6.65;4.50;;;;;16.10;102920.00;;;;5034629;28;20222;-79
2021/10/08 01:45:36;;;;;;;10.98;4.57;;;;;16.10;102922.00;;;;5040528;28;20200;-79
2021/10/08 01:48:03;;;;;;;6.72;4.45;;;;;16.10;102916.00;;;;5034516;28;20204;-79
2021/10/08 01:50:31;;;;;;;9.23;4.88;;;;;16.10;102922.00;;;;5028512;28;20275;-79
2021/10/08 01:52:59;;;;;;;6.05;4.68;;;;;16.10;102924.00;;;;5028426;28;20283;-79
2021/10/08 01:55:28;;;;;;;5.55;4.78;;;;;16.00;102915.00;;;;5029076;28;20608;-79
2021/10/08 01:57:55;;;;;;;6.28;4.45;;;;;16.00;102914.00;;;;5034288;28;20207;-79
2021/10/08 02:00:22;;;;;;;5.68;4.25;;;;;16.00;102923.00;;;;5046566;28;20588;-79
2021/10/08 02:02:50;;;;;;;8.20;4.93;;;;;16.00;102922.00;;;;5028194;28;20232;-79
2021/10/08 02:05:17;;;;;;;6.53;4.35;;;;;16.00;102920.00;;;;5034420;28;20658;-80
2021/10/08 02:07:47;;;;;;;5.18;3.78;;;;;16.00;102915.00;;;;5028629;28;20685;-80
2021/10/08 02:10:14;;;;;;;5.25;4.20;;;;;16.00;102923.00;;;;5027646;28;20236;-79
2021/10/08 02:12:43;;;;;;;6.25;4.80;;;;;15.90;102922.00;;;;5029354;28;20228;-79
2021/10/08 02:15:10;;;;;;;7.25;4.50;;;;;15.90;102923.00;;;;5027517;28;20203;-79
2021/10/08 02:17:38;;;;;;;6.07;4.57;;;;;15.90;102926.00;;;;5027747;28;20200;-79
2021/10/08 02:20:06;;;;;;;4.72;3.75;;;;;15.90;102919.00;;;;5027136;28;20201;-79
2021/10/08 02:22:33;;;;;;;8.60;4.03;;;;;15.90;102918.00;;;;5028319;28;20231;-79
2021/10/08 02:25:01;;;;;;;5.28;3.78;;;;;15.90;102919.00;;;;5035158;28;20588;-79
2021/10/08 02:27:28;;;;;;;8.48;4.05;;;;;15.90;102918.00;;;;5037859;28;20226;-79
2021/10/08 02:29:56;;;;;;;9.65;4.20;;;;;15.90;102916.00;;;;5030795;28;20193;-79
2021/10/08 02:32:24;;;;;;;10.07;3.88;;;;;15.90;102915.00;;;;5030938;28;20612;-79
2021/10/08 02:34:51;;;;;;;6.47;3.67;;;;;15.90;102921.00;;;;5036628;28;20215;-79
2021/10/08 02:37:18;;;;;;;3.88;3.45;;;;;15.80;102918.00;;;;5031961;28;20196;-79
2021/10/08 02:39:45;;;;;;;4.90;3.55;;;;;15.80;102918.00;;;;5050042;28;20300;-79
2021/10/08 02:42:13;;;;;;;5.07;3.55;;;;;15.80;102920.00;;;;5044734;28;20223;-79
2021/10/08 02:44:40;;;;;;;5.95;3.60;;;;;15.80;102916.00;;;;5053153;28;20190;-79
2021/10/08 02:47:09;;;;;;;5.55;4.07;;;;;15.70;102914.00;;;;5050138;28;20596;-79
2021/10/08 02:49:36;;;;;;;6.55;4.45;;;;;15.70;102908.00;;;;5038180;28;20216;-79
2021/10/08 02:52:04;;;;;;;5.43;3.42;;;;;15.70;102921.00;;;;5036651;28;20696;-80
2021/10/08 02:54:31;;;;;;;5.40;4.03;;;;;15.70;102906.00;;;;5030620;28;20192;-79
2021/10/08 02:56:58;;;;;;;5.35;4.28;;;;;15.70;102918.00;;;;5043701;28;20196;-79
2021/10/08 02:59:26;;;;;;;5.32;3.95;;;;;15.70;102914.00;;;;5042239;28;20200;-79
2021/10/08 03:01:53;;;;;;;5.82;3.80;;;;;15.70;102911.00;;;;5035899;28;20219;-80
2021/10/08 03:04:21;;;;;;;4.78;3.97;;;;;15.60;102917.00;;;;5030589;28;20195;-79
2021/10/08 03:06:48;;;;;;;4.75;3.60;;;;;15.60;102915.00;;;;5030234;28;20188;-79
2021/10/08 03:09:16;;;;;;;4.68;3.67;;;;;15.60;102913.00;;;;5030000;28;20200;-79
2021/10/08 03:11:44;;;;;;;4.53;3.80;;;;;15.60;102915.00;;;;5029793;28;20215;-79
2021/10/08 03:14:11;;;;;;;5.82;4.15;;;;;15.60;102917.00;;;;5030637;28;20375;-80
2021/10/08 03:16:39;;;;;;;9.68;3.83;;;;;15.50;102922.00;;;;5030963;28;20196;-79
2021/10/08 03:19:06;;;;;;;5.55;3.65;;;;;15.50;102916.00;;;;5033209;28;20203;-79
2021/10/08 03:21:34;;;;;;;4.25;3.85;;;;;15.50;102922.00;;;;5031117;28;20674;-79
2021/10/08 03:24:02;;;;;;;8.52;4.13;;;;;15.50;102922.00;;;;5032442;28;20553;-80
2021/10/08 03:26:29;;;;;;;6.43;3.85;;;;;15.40;102916.00;;;;5038867;28;20766;-80
2021/10/08 03:28:56;;;;;;;6.80;4.35;;;;;15.40;102926.00;;;;5041217;28;20196;-79
2021/10/08 03:31:24;;;;;;;7.13;4.00;;;;;15.40;102932.00;;;;5047422;28;20208;-79
2021/10/08 03:33:51;;;;;;;7.15;3.92;;;;;15.40;102923.00;;;;5029893;28;20204;-79
2021/10/08 03:36:23;;;;;;;9.38;3.55;;;;;15.40;102923.00;;;;5030133;28;20581;-79
2021/10/08 03:38:51;;;;;;;5.20;3.90;;;;;15.30;102920.00;;;;5042056;28;20289;-79
2021/10/08 03:41:20;;;;;;;6.28;3.60;;;;;15.30;102926.00;;;;5039471;28;20212;-79
2021/10/08 03:43:48;;;;;;;5.28;3.88;;;;;15.30;102927.00;;;;5032148;28;20307;-79
2021/10/08 03:46:15;;;;;;;4.65;3.22;;;;;15.30;102928.00;;;;5033242;28;20649;-79
2021/10/08 03:49:12;;;;;;;4.82;3.15;;;;;15.30;102934.00;;;;5030498;28;20211;-79
2021/10/08 03:51:39;;;;;;;4.10;2.88;;;;;15.30;102930.00;;;;5046864;28;20199;-79
2021/10/08 03:54:08;;;;;;;4.40;3.40;;;;;15.20;102928.00;;;;5034409;28;20580;-79
2021/10/08 03:56:35;;;;;;;3.88;3.28;;;;;15.20;102931.00;;;;5043937;28;20214;-79
2021/10/08 03:59:03;;;;;;;3.30;3.00;;;;;15.20;102926.00;;;;5048390;28;20214;-79
2021/10/08 04:01:30;;;;;;;3.13;2.72;;;;;15.20;102925.00;;;;5036301;28;20199;-78
2021/10/08 04:03:58;;;;;;;4.45;2.85;;;;;15.20;102927.00;;;;5043039;28;20600;-79
2021/10/08 04:06:25;;;;;;;5.88;2.80;;;;;15.20;102935.00;;;;5048759;28;20207;-79
2021/10/08 04:08:52;;;;;;;4.45;3.33;;;;;15.20;102931.00;;;;5043426;28;20211;-79
2021/10/08 04:11:21;;;;;;;4.70;3.17;;;;;15.10;102927.00;;;;5029972;28;20728;-79
2021/10/08 04:13:48;;;;;;;3.95;2.80;;;;;15.20;102929.00;;;;5029328;28;20208;-79
2021/10/08 04:16:15;;;;;;;3.80;3.42;;;;;15.10;102932.00;;;;5029759;28;20200;-79
2021/10/08 04:18:43;;;;;;;8.48;2.92;;;;;15.10;102932.00;;;;5037675;28;20196;-79
2021/10/08 04:21:10;;;;;;;3.88;3.15;;;;;15.10;102931.00;;;;5043937;28;20195;-80
2021/10/08 04:23:37;;;;;;;5.18;2.50;;;;;15.10;102930.00;;;;5033184;28;20408;-78
2021/10/08 04:26:05;;;;;;;2.60;2.35;;;;;15.10;102929.00;;;;5040742;28;20210;-79
2021/10/08 04:28:34;;;;;;;3.65;2.67;;;;;15.00;102935.00;;;;5043372;28;20207;-78
2021/10/08 04:31:01;;;;;;;4.05;2.90;;;;;15.00;102934.00;;;;5029248;28;20204;-79
2021/10/08 04:33:30;;;;;;;4.25;2.85;;;;;15.00;102935.00;;;;5028372;28;20207;-79
2021/10/08 04:35:59;;;;;;;3.60;3.17;;;;;15.00;102941.00;;;;5035486;28;20249;-79
2021/10/08 04:38:27;;;;;;;4.32;3.03;;;;;15.00;102943.00;;;;5029456;28;20264;-79
2021/10/08 04:40:54;;;;;;;4.28;2.83;;;;;15.00;102935.00;;;;5035775;28;20192;-79
2021/10/08 04:43:22;;;;;;;3.83;3.33;;;;;15.00;102941.00;;;;5031757;28;20211;-79
2021/10/08 04:45:51;;;;;;;5.78;2.60;;;;;14.90;102945.00;;;;5028469;28;20192;-79
2021/10/08 04:48:18;;;;;;;3.42;2.97;;;;;14.90;102947.00;;;;5039180;28;20215;-78
2021/10/08 04:50:46;;;;;;;3.00;2.58;;;;;14.90;102949.00;;;;5029963;28;20732;-78
2021/10/08 04:53:15;;;;;;;5.28;3.30;;;;;14.90;102939.00;;;;5038827;28;20203;-79
2021/10/08 04:55:43;;;;;;;4.82;2.72;;;;;14.90;102949.00;;;;5038533;28;20570;-79
2021/10/08 04:58:10;;;;;;;5.05;2.88;;;;;14.90;102948.00;;;;5036505;28;20207;-79
2021/10/08 05:00:38;;;;;;;4.60;3.38;;;;;14.90;102946.00;;;;5042047;28;20210;-79
2021/10/08 05:03:12;;;;;;;6.88;3.55;;;;;14.80;102947.00;;;;5047879;28;20223;-79
2021/10/08 05:05:39;;;;;;;6.10;2.35;;;;;14.90;102947.00;;;;5044280;28;20198;-79
2021/10/08 05:08:07;;;;;;;3.30;2.50;;;;;14.80;102954.00;;;;5044655;28;20196;-78
2021/10/08 05:10:35;;;;;;;5.20;3.05;;;;;14.80;102952.00;;;;5042750;28;20196;-78
2021/10/08 05:13:02;;;;;;;4.10;2.92;;;;;14.80;102956.00;;;;5035588;28;20199;-78
2021/10/08 05:15:29;;;;;;;4.13;2.88;;;;;14.80;102954.00;;;;5041425;28;20188;-80
2021/10/08 05:17:56;;;;;;;4.03;2.92;;;;;14.80;102953.00;;;;5045356;28;20195;-80
2021/10/08 05:20:25;;;;;;;3.35;2.63;;;;;14.80;102955.00;;;;5047269;28;20646;-81
2021/10/08 05:22:52;;;;;;;3.95;2.80;;;;;14.80;102951.00;;;;5044405;28;20222;-78
2021/10/08 05:25:20;;;;;;;3.10;2.67;;;;;14.80;102957.00;;;;5037594;28;20200;-78
2021/10/08 05:27:47;;;;;;;2.85;2.15;;;;;14.70;102956.00;;;;5032169;28;20600;-75
2021/10/08 05:30:17;;;;;;;3.97;2.35;;;;;14.70;102957.00;;;;5035308;28;20198;-77
2021/10/08 05:32:44;;;;;;;3.55;2.63;;;;;14.70;102956.00;;;;5040847;28;20723;-77
2021/10/08 05:35:13;;;;;;;3.13;2.15;;;;;14.70;102953.00;;;;5047175;28;20211;-76
2021/10/08 05:37:42;;;;;;;3.22;2.47;;;;;14.70;102953.00;;;;5038852;28;20247;-76
2021/10/08 05:40:10;;;;;;;2.42;2.10;;;;;14.70;102946.00;;;;5047737;28;20228;-76
2021/10/08 05:42:37;;;;;;;3.00;2.35;;;;;14.70;102946.00;;;;5041257;28;20207;-77
2021/10/08 05:45:05;;;;;;;2.92;2.35;;;;;14.60;102954.00;;;;5028150;28;20204;-76
2021/10/08 05:47:32;;;;;;;3.10;2.53;;;;;14.60;102955.00;;;;5033863;28;20587;-76
2021/10/08 05:50:00;;;;;;;3.22;2.67;;;;;14.60;102948.00;;;;5038725;28;20215;-76
2021/10/08 05:52:28;;;;;;;4.45;2.50;;;;;14.60;102953.00;;;;5045983;28;20282;-76
2021/10/08 05:54:56;;;;;;;3.83;2.83;;;;;14.60;102956.00;;;;5048552;28;20211;-77
2021/10/08 05:57:23;;;;;;;3.78;2.47;;;;;14.60;102955.00;;;;5033749;28;20199;-77
2021/10/08 05:59:51;;;;;;;3.47;2.60;;;;;14.50;102953.00;;;;5038544;28;20211;-78
2021/10/08 06:02:18;;;;;;;3.28;2.58;;;;;14.50;102967.00;;;;5034381;28;20681;-76
2021/10/08 06:04:45;;;;;;;4.03;2.65;;;;;14.50;102962.00;;;;5033360;28;20232;-76
2021/10/08 06:07:12;;;;;;;3.85;3.22;;;;;14.50;102967.00;;;;5035111;28;20714;-75
2021/10/08 06:09:44;;;;;;;4.05;2.92;;;;;14.50;102972.00;;;;5040787;28;20218;-75
2021/10/08 06:12:12;;;;;;;3.90;2.47;;;;;14.40;102972.00;;;;5049371;28;20191;-75
2021/10/08 06:14:39;;;;;;;3.13;2.47;;;;;14.40;102978.00;;;;5056251;28;20212;-75
2021/10/08 06:17:07;;;;;;;3.97;2.78;;;;;14.40;102979.00;;;;5050683;28;20196;-75
2021/10/08 06:19:34;;;;;;;3.35;2.40;;;;;14.40;102984.00;;;;5045182;28;20662;-75
2021/10/08 06:22:01;;;;;;;2.47;2.08;;;;;14.40;102981.00;;;;5030465;28;20204;-75
2021/10/08 06:24:28;;;;;;;3.17;2.65;;;;;14.30;102986.00;;;;5031025;28;20721;-76
2021/10/08 06:26:55;;;;;;;5.60;2.28;;;;;14.30;102991.00;;;;5038409;28;20196;-75
2021/10/08 06:29:24;;;;;;;3.50;2.55;;;;;14.30;102988.00;;;;5051363;28;20628;-75
2021/10/08 06:31:51;;;;;;;3.15;2.28;;;;;14.30;102991.00;;;;5051362;28;20199;-75
2021/10/08 06:34:18;;;;;;;3.25;2.70;;;;;14.30;102997.00;;;;5051591;28;20207;-75
2021/10/08 06:36:46;;;;;;;3.17;2.58;;;;;14.30;102994.00;;;;5050801;28;20200;-76
2021/10/08 06:39:13;;;;;;;2.90;2.30;;;;;14.30;103003.00;;;;5049776;28;20231;-75
2021/10/08 06:41:40;;;;;;;3.53;2.72;;;;;14.30;102998.00;;;;5031822;28;20578;-75
2021/10/08 06:44:08;;;;;;;4.38;2.70;;;;;14.30;103004.00;;;;5030784;28;20220;-74
2021/10/08 06:46:37;;;;;;;4.10;2.70;;;;;14.30;103004.00;;;;5031284;28;20215;-75
2021/10/08 06:49:04;;;;;;;4.80;2.95;;;;;14.30;103000.00;;;;5030888;28;20219;-75
2021/10/08 06:51:31;;;;;;;3.35;2.72;;;;;14.30;103001.00;;;;5031117;28;20304;-75
2021/10/08 06:53:58;;;;;;;3.53;2.90;;;;;14.30;102998.00;;;;5030787;28;20226;-75
2021/10/08 06:56:25;;;;;;;3.45;2.83;;;;;14.40;103001.00;;;;5031704;28;20231;-76
2021/10/08 06:58:53;;;;;;;4.10;3.00;;;;;14.40;103001.00;;;;5030976;28;20192;-75
2021/10/08 07:01:20;;;;;;;3.83;2.80;;;;;14.40;103003.00;;;;5030396;28;20207;-76
2021/10/08 07:03:48;;;;;;;4.70;3.40;;;;;14.40;103003.00;;;;5030763;28;20223;-75
2021/10/08 07:06:16;;;;;;;5.50;3.25;;;;;14.50;103009.00;;;;5047252;28;20203;-74
2021/10/08 07:08:43;;;;;;;3.38;2.60;;;;;14.50;103014.00;;;;5051013;28;20595;-75
2021/10/08 07:11:10;;;;;;;5.60;3.58;;;;;14.60;103005.00;;;;5049919;28;20631;-75
2021/10/08 07:13:39;;;;;;;3.72;3.00;;;;;14.60;103006.00;;;;5047015;28;20271;-75
2021/10/08 07:16:06;;;;;;;5.90;2.85;;;;;14.60;103008.00;;;;5034076;28;20203;-76
2021/10/08 07:18:35;;;;;;;4.75;3.17;;;;;14.70;103008.00;;;;5049193;28;20195;-75
2021/10/08 07:21:06;;;;;;;4.30;3.22;;;;;14.70;103011.00;;;;5049967;28;20673;-77
2021/10/08 07:23:34;;;;;;;4.22;3.03;;;;;14.80;103013.00;;;;5056560;28;20669;-76
2021/10/08 07:26:01;;;;;;;3.40;2.85;;;;;14.80;103008.00;;;;5048892;28;20696;-76
2021/10/08 07:28:29;;;;;;;5.63;3.47;;;;;14.90;103014.00;;;;5051212;28;20208;-76
2021/10/08 07:30:56;;;;;;;8.88;4.75;;;;;14.90;103008.00;;;;5044017;28;20257;-76
2021/10/08 07:33:23;;;;;;;5.28;3.85;;;;;15.00;103013.00;;;;5030713;28;20216;-76
2021/10/08 07:35:50;;;;;;;6.25;4.25;;;;;15.00;103012.00;;;;5029843;28;20196;-76
2021/10/08 07:38:19;;;;;;;6.35;4.25;;;;;15.10;103011.00;;;;5030549;28;20216;-76
2021/10/08 07:40:46;;;;;;;9.35;4.72;;;;;15.20;103019.00;;;;5042873;28;20249;-76
2021/10/08 07:43:13;;;;;;;6.03;4.03;;;;;15.20;103019.00;;;;5043831;28;20204;-76
2021/10/08 07:45:40;;;;;;;6.32;4.05;;;;;15.30;103016.00;;;;5030660;28;20204;-76
2021/10/08 07:48:08;;;;;;;5.53;3.88;;;;;15.40;103020.00;;;;5036821;28;20203;-76
2021/10/08 07:50:35;;;;;;;6.53;4.63;;;;;15.40;103021.00;;;;5049588;28;20219;-76
2021/10/08 07:53:03;;;;;;;6.03;4.47;;;;;15.50;103026.00;;;;5049704;28;20192;-76
2021/10/08 07:55:31;;;;;;;6.50;4.25;;;;;15.60;103020.00;;;;5049749;28;20192;-75
2021/10/08 07:57:59;;;;;;;7.43;4.53;;;;;15.60;103032.00;;;;5049915;28;20199;-75
2021/10/08 08:00:26;;;;;;;7.97;5.38;;;;;15.70;103030.00;;;;5049160;28;20666;-75
2021/10/08 08:02:53;;;;;;;7.65;5.68;;;;;15.80;103042.00;;;;5049458;28;20218;-76
2021/10/08 08:05:20;;;;;;;8.75;5.43;;;;;15.90;103036.00;;;;5048947;28;20214;-75
2021/10/08 08:07:50;;;;;;;8.45;6.10;;;;;15.90;103038.00;;;;5049075;28;20212;-75
2021/10/08 08:10:17;;;;;;;9.05;6.40;;;;;16.00;103023.00;;;;5050090;28;20204;-76
2021/10/08 08:12:46;;;;;;;15.70;6.57;;;;;16.10;103035.00;;;;5044742;28;20207;-75
2021/10/08 08:15:14;;;;;;;10.93;6.65;;;;;16.20;103033.00;;;;5048921;28;20223;-76
2021/10/08 08:17:41;;;;;;;11.15;7.10;;;;;16.30;103034.00;;;;5049058;28;20203;-75
2021/10/08 08:20:10;;;;;;;9.90;6.45;;;;;16.30;103036.00;;;;5048873;28;20199;-75
2021/10/08 08:22:37;;;;;;;11.43;7.43;;;;;16.50;103035.00;;;;5037610;28;20208;-75
2021/10/08 08:25:06;;;;;;;11.40;8.15;;;;;16.50;103040.00;;;;5029711;28;20510;-75
2021/10/08 08:27:33;;;;;;;11.02;7.03;;;;;16.60;103041.00;;;;5029088;28;20208;-75
2021/10/08 08:30:03;;;;;;;10.23;7.32;;;;;16.70;103042.00;;;;5029230;28;20207;-75
2021/10/08 08:32:31;;;;;;;10.20;7.68;;;;;16.80;103039.00;;;;5060230;28;20701;-75
2021/10/08 08:34:58;;;;;;;12.13;7.68;;;;;16.90;103040.00;;;;5049292;28;20227;-75
2021/10/08 08:37:26;;;;;;;10.77;7.50;;;;;17.00;103047.00;;;;5048925;28;20686;-75
2021/10/08 08:39:53;;;;;;;13.32;8.63;;;;;17.10;103040.00;;;;5032904;28;20255;-75
2021/10/08 08:42:21;;;;;;;12.23;7.93;;;;;17.30;103042.00;;;;5028790;28;20203;-75
2021/10/08 08:44:50;;;;;;;14.73;10.10;;;;;17.40;103042.00;;;;5028834;28;20208;-75
2021/10/08 08:47:20;;;;;;;14.30;8.57;;;;;17.40;103043.00;;;;5028830;28;20235;-75
2021/10/08 08:49:48;;;;;;;11.88;7.72;;;;;17.60;103041.00;;;;5028948;28;20637;-75
2021/10/08 08:52:16;;;;;;;14.02;9.15;;;;;17.70;103041.00;;;;5028795;28;20231;-75
2021/10/08 08:54:45;;;;;;;12.57;9.05;;;;;17.80;103043.00;;;;5028588;28;20232;-75
2021/10/08 08:57:13;;;;;;;18.15;10.23;;;;;17.90;103039.00;;;;5029171;28;20291;-75
2021/10/08 09:00:00;;;;;;;16.15;9.82;;;;;17.90;103048.00;;;;5029339;28;20208;-76
2021/10/08 09:02:31;;;;;;;15.20;8.82;;;;;18.10;103038.00;;;;5029054;28;20212;-76
2021/10/08 09:04:58;;;;;;;12.93;8.68;;;;;18.20;103037.00;;;;5028623;28;20204;-75
2021/10/08 09:07:32;;;;;;;13.98;9.27;;;;;18.30;103041.00;;;;5028911;28;20235;-76
2021/10/08 09:10:11;;;;;;;13.27;9.02;;;;;18.40;103042.00;;;;5028090;28;20686;-76
2021/10/08 09:12:39;;;;;;;20.50;9.65;;;;;18.60;103040.00;;;;5032213;28;20587;-76
2021/10/08 09:15:08;;;;;;;13.32;9.40;;;;;18.70;103046.00;;;;5047938;28;20250;-75
2021/10/08 09:17:36;;;;;;;15.85;9.60;;;;;18.80;103049.00;;;;5048601;28;20261;-75
2021/10/08 09:20:06;;;;;;;14.43;9.90;;;;;19.00;103044.00;;;;5047721;28;20939;-75
2021/10/08 09:22:53;;;;;;;15.23;9.55;;;;;19.00;103045.00;;;;5048812;28;20211;-76
2021/10/08 09:25:24;;;;;;;16.13;9.35;;;;;19.20;103045.00;;;;5048451;28;20207;-76
2021/10/08 09:27:54;;;;;;;15.73;9.95;;;;;19.40;103047.00;;;;5048291;28;20196;-76
2021/10/08 09:30:25;;;;;;;16.98;10.13;;;;;19.50;103043.00;;;;5047127;28;20207;-76
2021/10/08 09:32:56;;;;;;;17.55;10.32;;;;;19.60;103040.00;;;;5049295;28;20199;-76
2021/10/08 09:35:26;;;;;;;15.38;10.25;;;;;19.80;103041.00;;;;5051877;28;20231;-76
2021/10/08 09:37:59;;;;;;;15.57;10.10;;;;;19.90;103040.00;;;;5052960;28;20669;-76
2021/10/08 09:40:30;;;;;;;20.80;10.90;;;;;20.00;103041.00;;;;5070400;28;20240;-76
2021/10/08 09:43:00;;;;;;;16.65;11.10;;;;;20.10;103036.00;;;;5066445;28;20195;-75
2021/10/08 09:45:43;;;;;;;15.45;9.23;;;;;20.20;103032.00;;;;5052500;28;20211;-76
2021/10/08 09:48:12;;;;;;;13.40;8.10;;;;;20.40;103033.00;;;;5035196;28;20204;-76
2021/10/08 09:50:55;;;;;;;14.50;9.32;;;;;20.60;103038.00;;;;5032312;28;20721;-75
2021/10/08 09:53:22;;;;;;;12.90;9.43;;;;;20.70;103041.00;;;;5032431;28;20207;-76
2021/10/08 09:55:50;;;;;;;15.27;9.75;;;;;20.90;103041.00;;;;5031431;28;20302;-76
2021/10/08 09:58:17;;;;;;;14.70;9.40;;;;;21.00;103041.00;;;;5032144;28;20200;-76
2021/10/08 10:00:47;;;;;;;15.77;9.98;;;;;21.10;103046.00;;;;5031457;28;20200;-76
2021/10/08 10:03:17;;;;;;;15.30;9.02;;;;;21.30;103040.00;;;;5032539;28;20203;-76
2021/10/08 10:05:45;;;;;;;13.50;9.55;;;;;21.40;103041.00;;;;5032178;28;20211;-76
2021/10/08 10:08:13;;;;;;;16.17;9.93;;;;;21.60;103040.00;;;;5031061;28;20699;-76
2021/10/08 10:10:41;;;;;;;11.90;9.38;;;;;21.70;103036.00;;;;5032131;28;20454;-76
2021/10/08 10:13:11;;;;;;;15.55;10.52;;;;;21.80;103033.00;;;;5031543;28;20291;-76
2021/10/08 10:15:41;;;;;;;13.45;8.77;;;;;21.90;103038.00;;;;5031873;28;20220;-75
2021/10/08 10:18:12;;;;;;;12.00;8.10;;;;;22.10;103035.00;;;;5031956;28;20200;-76
2021/10/08 10:20:45;;;;;;;11.43;8.40;;;;;22.20;103036.00;;;;5034710;28;20684;-75
2021/10/08 10:23:14;;;;;;;11.10;7.50;;;;;22.30;103037.00;;;;5051187;28;20203;-76
2021/10/08 10:25:42;;;;;;;12.10;8.55;;;;;22.40;103040.00;;;;5051602;28;20211;-75
2021/10/08 10:28:10;;;;;;;10.70;8.27;;;;;22.50;103043.00;;;;5050640;28;20200;-76
2021/10/08 10:30:38;;;;;;;11.43;9.07;;;;;22.60;103047.00;;;;5051380;28;20200;-76
2021/10/08 10:33:06;;;;;;;12.57;9.23;;;;;22.80;103042.00;;;;5050183;28;20211;-76
2021/10/08 10:35:49;;;;;;;11.68;8.30;;;;;22.80;103044.00;;;;5051335;28;20224;-76
2021/10/08 10:38:25;;;;;;;17.05;8.90;;;;;22.90;103041.00;;;;5049293;28;20239;-76
2021/10/08 10:41:20;;;;;;;11.77;8.93;;;;;22.90;103047.00;;;;5051155;28;20210;-77
2021/10/08 10:43:50;;;;;;;11.85;7.82;;;;;23.10;103041.00;;;;5053283;28;20357;-76
2021/10/08 10:46:27;;;;;;;12.75;8.35;;;;;23.10;103035.00;;;;5068178;28;20293;-76
2021/10/08 10:49:27;;;;;;;12.73;9.10;;;;;23.20;103037.00;;;;5070801;28;20195;-76
2021/10/08 10:52:21;;;;;;;12.02;8.80;;;;;23.30;103038.00;;;;5070577;28;20593;-74
2021/10/08 10:54:57;;;;;;;13.55;9.23;;;;;23.40;103039.00;;;;5059960;28;20270;-74
2021/10/08 10:57:58;;;;;;;11.57;8.45;;;;;23.40;103037.00;;;;5030768;28;20199;-77
2021/10/08 11:00:39;;;;;;;13.77;9.77;;;;;23.60;103039.00;;;;5017687;28;20215;-76
2021/10/08 11:03:12;;;;;;;11.10;8.40;;;;;23.60;103033.00;;;;5030824;28;20433;-76
2021/10/08 11:05:42;;;;;;;12.40;9.15;;;;;23.70;103043.00;;;;5030764;28;20203;-76
2021/10/08 11:08:15;;;;;;;14.50;9.23;;;;;23.80;103043.00;;;;5030876;28;20278;-76
2021/10/08 11:10:47;;;;;;;11.25;8.82;;;;;23.90;103038.00;;;;5030484;28;20670;-77
2021/10/08 11:13:28;;;;;;;12.65;8.18;;;;;23.90;103039.00;;;;5030844;28;20575;-76
2021/10/08 11:15:58;;;;;;;12.20;8.98;;;;;24.00;103033.00;;;;5030597;28;20323;-76
2021/10/08 11:18:49;;;;;;;13.75;9.13;;;;;24.00;103030.00;;;;5030399;28;20200;-76
2021/10/08 11:21:50;;;;;;;12.32;7.72;;;;;24.00;103021.00;;;;5029454;28;20212;-76
2021/10/08 11:24:21;;;;;;;11.25;8.25;;;;;24.20;103026.00;;;;5034802;28;20207;-77
2021/10/08 11:26:57;;;;;;;15.25;8.93;;;;;24.20;103023.00;;;;5041628;28;20250;-77
2021/10/08 11:29:27;;;;;;;13.80;8.38;;;;;24.30;103020.00;;;;5030012;28;20231;-76
2021/10/08 11:32:03;;;;;;;10.68;8.25;;;;;24.30;103021.00;;;;5031117;28;20203;-78
2021/10/08 11:34:30;;;;;;;11.35;8.48;;;;;24.40;103019.00;;;;5045743;28;20206;-78
2021/10/08 11:36:58;;;;;;;13.07;9.43;;;;;24.40;103017.00;;;;5050116;28;20191;-77
2021/10/08 11:39:27;;;;;;;11.05;8.73;;;;;24.40;103009.00;;;;5034898;28;20235;-78
2021/10/08 11:42:03;;;;;;;10.68;8.25;;;;;24.50;102997.00;;;;5030489;28;20643;-79
2021/10/08 11:44:33;;;;;;;10.02;8.07;;;;;24.60;103005.00;;;;5048870;28;20488;-81
2021/10/08 11:47:09;;;;;;;11.40;7.55;;;;;24.60;103000.00;;;;5036999;28;20697;-79
2021/10/08 11:49:46;;;;;;;13.27;8.35;;;;;24.60;102994.00;;;;5030053;28;20219;-78
2021/10/08 11:52:13;;;;;;;14.10;8.98;;;;;24.60;102999.00;;;;5030101;28;20203;-79
2021/10/08 11:54:42;;;;;;;11.73;8.02;;;;;24.60;102994.00;;;;5042305;28;20219;-78
2021/10/08 11:57:10;;;;;;;11.75;8.35;;;;;24.60;102991.00;;;;5056542;28;20597;-77
2021/10/08 11:59:38;;;;;;;10.90;7.40;;;;;24.60;102988.00;;;;5049924;28;20567;-78
2021/10/08 12:02:10;;;;;;;9.88;7.53;;;;;24.60;102989.00;;;;5049395;28;20195;-78
2021/10/08 12:04:38;;;;;;;8.55;6.82;;;;;24.60;102985.00;;;;5029790;28;20291;-75
2021/10/08 12:07:09;;;;;;;6.70;5.68;;;;;24.60;102979.00;;;;5029893;28;20193;-76
2021/10/08 12:09:37;;;;;;;6.43;4.50;;;;;24.70;102979.00;;;;5029154;28;20208;-76
2021/10/08 12:12:12;;;;;;;7.45;5.25;;;;;24.60;102975.00;;;;5029943;28;20196;-75
2021/10/08 12:14:45;;;;;;;5.60;4.40;;;;;24.70;102975.00;;;;5029962;28;20199;-75
2021/10/08 12:17:12;;;;;;;6.30;4.45;;;;;24.70;102974.00;;;;5029103;28;20212;-76